Time;durP1;ratioP1;P1;durP2;ratioP2;P2;SDS_P1;SDS_P2;PMS_P1;PMS_P2;Temp;Humidity;BMP_temperature;BMP_pressure;BME280_temperature;BME280_humidity;BME280_pressure;Samples;Min_cycle;Max_cycle;Signal;HPM_P1;HPM_P2
2022/12/17 13:06:52;;;;;;;68.07;31.08;;;0.60;99.90;;;;;;5056776;28;20131;-65
2022/12/17 13:09:20;;;;;;;62.05;29.05;;;0.60;99.90;;;;;;5080173;28;20100;-61
2022/12/17 13:11:49;;;;;;;66.47;31.80;;;0.50;99.90;;;;;;5053176;28;20084;-64
2022/12/17 13:14:20;;;;;;;60.40;30.42;;;0.50;99.90;;;;;;5065285;28;20048;-63
2022/12/17 13:16:54;;;;;;;72.78;33.95;;;0.50;99.90;;;;;;5057260;28;20128;-63
2022/12/17 13:19:40;;;;;;;66.27;32.73;;;0.50;99.90;;;;;;5058448;28;20043;-63
2022/12/17 13:22:15;;;;;;;67.32;32.90;;;0.50;99.90;;;;;;5088162;28;20362;-63
2022/12/17 13:24:45;;;;;;;;;;;0.40;99.90;;;;;;5069964;28;20040;-62
2022/12/17 13:27:28;;;;;;;67.63;29.42;;;0.40;99.90;;;;;;5078848;28;19923;-64
2022/12/17 13:29:53;;;;;;;63.20;30.58;;;0.40;99.90;;;;;;5072359;28;20068;-62
2022/12/17 13:32:32;;;;;;;70.60;31.50;;;0.30;99.90;;;;;;5059534;28;20452;-62
2022/12/17 13:35:37;;;;;;;63.72;30.50;;;0.40;99.90;;;;;;5075502;28;20114;-66
2022/12/17 13:38:09;;;;;;;75.43;31.90;;;0.30;99.90;;;;;;5046795;28;20061;-62
2022/12/17 13:40:53;;;;;;;63.30;29.20;;;0.30;99.90;;;;;;5058933;28;20123;-61
2022/12/17 13:43:21;;;;;;;62.67;27.97;;;0.30;99.90;;;;;;5089607;28;20149;-61
2022/12/17 13:45:47;;;;;;;68.07;29.65;;;0.20;99.90;;;;;;5091038;28;20499;-63
2022/12/17 13:48:24;;;;;;;65.32;30.33;;;0.20;99.90;;;;;;5062559;28;20036;-62
2022/12/17 13:51:00;;;;;;;63.75;29.40;;;0.20;99.90;;;;;;5080055;28;20059;-62
2022/12/17 13:53:27;;;;;;;66.25;29.42;;;0.20;99.90;;;;;;5079625;28;20068;-63
2022/12/17 13:55:55;;;;;;;70.82;29.67;;;0.20;99.90;;;;;;5082988;28;20028;-63
2022/12/17 13:58:26;;;;;;;61.80;31.23;;;0.20;99.90;;;;;;5081223;28;20033;-61
2022/12/17 14:01:07;;;;;;;65.25;31.70;;;0.20;99.90;;;;;;5083524;28;20074;-63
2022/12/17 14:03:32;;;;;;;68.60;31.48;;;0.10;99.90;;;;;;5061415;28;20181;-63
2022/12/17 14:05:58;;;;;;;64.65;30.88;;;0.10;99.90;;;;;;5080258;28;20118;-63
2022/12/17 14:08:29;;;;;;;68.97;31.52;;;0.10;99.90;;;;;;5075037;28;20458;-62
2022/12/17 14:12:20;;;;;;;67.80;29.95;;;0.00;99.90;;;;;;5075283;28;20044;-62
2022/12/17 14:13:44;;;;;;;62.45;30.10;;;0.00;99.90;;;;;;5074225;28;20056;-61
2022/12/17 14:16:18;;;;;;;68.28;31.10;;;0.00;99.90;;;;;;5080118;28;20047;-62
2022/12/17 14:18:50;;;;;;;68.43;29.65;;;0.00;99.90;;;;;;5080164;28;20111;-62
2022/12/17 14:21:16;;;;;;;69.32;32.83;;;-0.10;99.90;;;;;;5062876;28;20041;-62
2022/12/17 14:23:42;;;;;;;65.05;28.58;;;-0.10;99.90;;;;;;5081188;28;20045;-62
2022/12/17 14:26:13;;;;;;;65.80;30.92;;;-0.10;99.90;;;;;;5086951;28;20486;-64
2022/12/17 14:28:53;;;;;;;61.63;28.77;;;-0.20;99.90;;;;;;5074731;28;20105;-64
2022/12/17 14:31:28;;;;;;;64.13;28.50;;;-0.20;99.90;;;;;;5092424;28;20036;-63
2022/12/17 14:34:09;;;;;;;66.30;28.92;;;-0.30;99.90;;;;;;5077092;28;20115;-63
2022/12/17 14:36:37;;;;;;;64.93;29.48;;;-0.30;99.90;;;;;;5079470;28;20045;-63
2022/12/17 14:39:30;;;;;;;66.35;29.83;;;-0.30;99.90;;;;;;5077608;28;20456;-64
2022/12/17 14:42:25;;;;;;;66.55;29.45;;;-0.40;99.90;;;;;;5089048;28;20067;-63
2022/12/17 14:44:53;;;;;;;63.55;28.13;;;-0.40;99.90;;;;;;5093024;28;20038;-62
2022/12/17 14:47:25;;;;;;;65.25;28.65;;;-0.40;99.90;;;;;;5062499;28;20122;-62
2022/12/17 14:49:57;;;;;;;63.17;27.65;;;-0.50;99.90;;;;;;5092690;28;20127;-64
2022/12/17 14:52:33;;;;;;;62.17;27.23;;;-0.40;99.90;;;;;;5092982;28;20043;-60
2022/12/17 14:54:58;;;;;;;65.60;29.58;;;-0.40;99.90;;;;;;5078442;28;20125;-63
2022/12/17 14:57:24;;;;;;;65.32;28.58;;;-0.50;99.90;;;;;;5083184;28;20047;-62
2022/12/17 14:59:51;;;;;;;67.85;29.95;;;-0.40;99.90;;;;;;5061672;28;20447;-62
2022/12/17 15:02:26;;;;;;;73.35;31.63;;;-0.40;99.90;;;;;;5082953;28;20113;-63
2022/12/17 15:04:57;;;;;;;63.65;27.60;;;-0.50;99.90;;;;;;5071770;28;20118;-63
2022/12/17 15:07:29;;;;;;;60.83;26.98;;;-0.50;99.90;;;;;;5087018;28;20032;-62
2022/12/17 15:09:55;;;;;;;65.10;28.48;;;-0.50;99.90;;;;;;5090979;28;20349;-63
2022/12/17 15:12:22;;;;;;;61.55;27.40;;;-0.50;99.90;;;;;;5092335;28;20119;-62
2022/12/17 15:14:48;;;;;;;60.30;27.00;;;-0.50;99.90;;;;;;5086207;28;20047;-60
2022/12/17 15:17:14;;;;;;;64.18;26.83;;;-0.60;99.90;;;;;;5075833;28;20091;-65
2022/12/17 15:19:40;;;;;;;60.45;27.35;;;-0.60;99.90;;;;;;5080183;28;20031;-61
2022/12/17 15:22:13;;;;;;;59.83;25.80;;;-0.60;99.90;;;;;;5090602;28;20047;-61
2022/12/17 15:24:38;;;;;;;62.47;27.38;;;-0.70;99.90;;;;;;5058657;28;20113;-61
2022/12/17 15:27:04;;;;;;;64.82;28.55;;;-0.70;99.90;;;;;;5087268;28;20056;-61
2022/12/17 15:29:30;;;;;;;62.25;26.17;;;-0.70;99.90;;;;;;5092548;28;20051;-62
2022/12/17 15:31:56;;;;;;;63.17;27.05;;;-0.70;99.90;;;;;;5087856;28;20044;-61
2022/12/17 15:34:22;;;;;;;64.63;27.02;;;-0.70;99.90;;;;;;5076171;28;20036;-62
2022/12/17 15:36:47;;;;;;;64.95;26.92;;;-0.70;99.90;;;;;;5076964;28;20132;-63
2022/12/17 15:39:13;;;;;;;68.05;28.75;;;-0.70;99.90;;;;;;5075686;28;20078;-63
2022/12/17 15:44:23;;;;;;;70.68;29.20;;;-0.80;99.90;;;;;;5075287;28;20373;-63
2022/12/17 15:46:48;;;;;;;65.47;26.98;;;-0.70;99.90;;;;;;5075294;28;20040;-62
2022/12/17 15:49:14;;;;;;;82.55;31.27;;;-0.80;99.90;;;;;;5077533;28;20044;-63
2022/12/17 15:51:39;;;;;;;303.58;96.15;;;-0.90;99.90;;;;;;5072821;28;20162;-62
2022/12/17 15:54:05;;;;;;;237.68;78.85;;;-0.90;99.90;;;;;;5073779;28;20044;-61
2022/12/17 15:56:31;;;;;;;96.82;41.08;;;-0.90;99.90;;;;;;5073183;28;20044;-63
2022/12/17 15:58:57;;;;;;;98.28;42.67;;;-0.90;99.90;;;;;;5079173;28;20048;-61
2022/12/17 16:01:23;;;;;;;72.72;31.42;;;-1.00;99.90;;;;;;5060817;28;20028;-61
2022/12/17 16:03:52;;;;;;;66.50;26.23;;;-1.00;99.90;;;;;;5078159;28;20414;-63
2022/12/17 16:06:17;;;;;;;65.85;29.20;;;-1.00;99.90;;;;;;5072495;28;20051;-61
2022/12/17 16:08:43;;;;;;;66.30;27.48;;;-1.10;99.90;;;;;;5080592;28;20452;-60
2022/12/17 16:11:11;;;;;;;67.15;28.67;;;-1.00;99.90;;;;;;5083002;28;20033;-61
2022/12/17 16:13:36;;;;;;;68.95;29.73;;;-1.10;99.90;;;;;;5054268;28;20102;-62
2022/12/17 16:16:02;;;;;;;66.35;28.88;;;-1.10;99.90;;;;;;5075761;28;20041;-61
2022/12/17 16:18:28;;;;;;;64.85;26.00;;;-1.20;99.90;;;;;;5073656;28;20115;-63
2022/12/17 16:20:53;;;;;;;61.88;26.52;;;-1.20;99.90;;;;;;5072783;28;20391;-61
2022/12/17 16:23:19;;;;;;;65.68;27.38;;;-1.20;99.90;;;;;;5072602;28;20399;-61
2022/12/17 16:25:57;;;;;;;67.93;28.13;;;-1.20;99.90;;;;;;5073034;28;20127;-61
2022/12/17 16:28:23;;;;;;;68.93;27.83;;;-1.20;99.90;;;;;;5072626;28;20361;-61
2022/12/17 16:31:02;;;;;;;67.72;27.05;;;-1.30;99.90;;;;;;5055461;28;20048;-60
2022/12/17 16:33:32;;;;;;;83.40;37.00;;;-1.30;99.90;;;;;;5072286;28;20032;-61
2022/12/17 16:35:58;;;;;;;85.60;35.15;;;-1.30;99.90;;;;;;5061409;28;20051;-61
2022/12/17 16:38:24;;;;;;;72.30;30.00;;;-1.40;99.90;;;;;;5072278;28;20036;-61
2022/12/17 16:40:53;;;;;;;70.25;29.77;;;-1.40;99.90;;;;;;5059827;28;20047;-61
2022/12/17 16:43:19;;;;;;;72.85;30.45;;;-1.40;99.90;;;;;;5077786;28;20032;-60
2022/12/17 16:45:49;;;;;;;62.10;25.83;;;-1.40;99.90;;;;;;5082298;28;20454;-60
2022/12/17 16:48:16;;;;;;;64.70;26.58;;;-1.40;99.90;;;;;;5088516;28;20111;-62
2022/12/17 16:50:42;;;;;;;67.60;27.67;;;-1.40;99.90;;;;;;5091154;28;20040;-61
2022/12/17 16:53:07;;;;;;;62.45;25.50;;;-1.50;99.90;;;;;;5087711;28;20046;-63
2022/12/17 16:55:43;;;;;;;68.63;28.17;;;-1.50;99.90;;;;;;5085570;28;20427;-63
2022/12/17 16:58:09;;;;;;;61.17;24.92;;;-1.60;99.90;;;;;;5055611;28;20114;-62
2022/12/17 17:00:36;;;;;;;63.60;24.13;;;-1.60;99.90;;;;;;5089939;28;20043;-61
2022/12/17 17:03:03;;;;;;;65.35;26.80;;;-1.60;99.90;;;;;;5081384;28;20024;-62
2022/12/17 17:05:38;;;;;;;67.75;27.05;;;-1.60;99.90;;;;;;5081322;28;20102;-61
2022/12/17 17:08:05;;;;;;;129.18;53.53;;;-1.50;99.90;;;;;;5042971;28;20062;-61
2022/12/17 17:10:33;;;;;;;63.70;26.02;;;-1.50;99.90;;;;;;5086986;28;20039;-61
2022/12/17 17:12:59;;;;;;;65.65;27.08;;;-1.60;99.90;;;;;;5091644;28;20418;-62
2022/12/17 17:15:24;;;;;;;76.57;30.10;;;-1.60;99.90;;;;;;5071617;28;20051;-62
2022/12/17 17:17:50;;;;;;;69.05;27.80;;;-1.50;99.90;;;;;;5070308;28;20048;-62
2022/12/17 17:20:16;;;;;;;63.95;26.80;;;-1.50;99.90;;;;;;5081316;28;20468;-61
2022/12/17 17:22:46;;;;;;;69.32;27.67;;;-1.60;99.90;;;;;;5080898;28;20352;-63
2022/12/17 17:25:12;;;;;;;72.32;27.92;;;-1.50;99.90;;;;;;5088326;28;20024;-63
2022/12/17 17:27:37;;;;;;;73.95;28.33;;;-1.60;99.90;;;;;;5079142;28;20045;-61
2022/12/17 17:30:03;;;;;;;66.50;25.50;;;-1.60;99.90;;;;;;5072722;28;20032;-62
2022/12/17 17:32:29;;;;;;;64.63;26.77;;;-1.50;99.90;;;;;;5068216;28;20400;-63
2022/12/17 17:34:55;;;;;;;75.68;27.92;;;-1.50;99.90;;;;;;5055671;28;20130;-59
2022/12/17 17:37:20;;;;;;;74.53;30.33;;;-1.60;99.90;;;;;;5066732;28;20044;-59
2022/12/17 17:39:46;;;;;;;69.40;26.67;;;-1.60;99.90;;;;;;5071926;28;20040;-61
2022/12/17 17:42:11;;;;;;;69.43;29.10;;;-1.60;99.90;;;;;;5058142;28;20469;-60
2022/12/17 17:44:37;;;;;;;67.85;25.73;;;-1.60;99.90;;;;;;5072519;28;20032;-60
2022/12/17 17:47:03;;;;;;;87.32;34.35;;;-1.60;99.90;;;;;;5032467;28;20041;-61
2022/12/17 17:49:29;;;;;;;86.63;40.83;;;-1.60;99.90;;;;;;5054320;28;20036;-62
2022/12/17 17:51:54;;;;;;;78.25;29.33;;;-1.50;99.90;;;;;;5073459;28;20123;-66
2022/12/17 17:54:20;;;;;;;66.47;26.83;;;-1.60;99.90;;;;;;5063446;28;20364;-62
2022/12/17 17:56:46;;;;;;;72.20;29.92;;;-1.60;99.90;;;;;;5058545;28;20048;-62
2022/12/17 17:59:14;;;;;;;72.40;29.33;;;-1.60;99.90;;;;;;5061206;28;20033;-60
2022/12/17 18:01:45;;;;;;;69.30;28.35;;;-1.60;99.90;;;;;;5060068;28;20120;-60
2022/12/17 18:04:13;;;;;;;65.55;28.15;;;-1.60;99.90;;;;;;5061661;28;20097;-62
2022/12/17 18:06:40;;;;;;;72.03;26.90;;;-1.60;99.90;;;;;;5058493;28;20604;-60
2022/12/17 18:09:07;;;;;;;69.90;26.08;;;-1.60;99.90;;;;;;5054980;28;20055;-64
2022/12/17 18:11:34;;;;;;;60.80;26.90;;;-1.70;99.90;;;;;;5055030;28;20136;-61
2022/12/17 18:14:02;;;;;;;68.93;28.77;;;-1.70;99.90;;;;;;5070265;28;20468;-60
2022/12/17 18:16:31;;;;;;;64.88;27.05;;;-1.70;99.90;;;;;;5070730;28;20119;-64
2022/12/17 18:19:03;;;;;;;67.35;26.00;;;-1.70;99.90;;;;;;5072533;28;20108;-63
2022/12/17 18:21:30;;;;;;;73.18;29.50;;;-1.70;99.90;;;;;;5069657;28;20123;-61
2022/12/17 18:24:00;;;;;;;64.55;27.05;;;-1.70;99.90;;;;;;5072019;28;20435;-63
2022/12/17 18:26:28;;;;;;;64.35;26.73;;;-1.70;99.90;;;;;;5068197;28;20113;-61
2022/12/17 18:28:55;;;;;;;61.67;27.75;;;-1.70;99.90;;;;;;5091262;28;20066;-60
2022/12/17 18:31:23;;;;;;;65.05;26.40;;;-1.70;99.90;;;;;;5091832;28;20445;-60
2022/12/17 18:33:52;;;;;;;60.03;28.65;;;-1.70;99.90;;;;;;5090464;28;20646;-60
2022/12/17 18:36:23;;;;;;;62.25;26.42;;;-1.80;99.90;;;;;;5090903;28;20040;-61
2022/12/17 18:39:00;;;;;;;65.72;27.77;;;-1.80;99.90;;;;;;5070461;28;20115;-59
2022/12/17 18:44:12;;;;;;;66.28;27.15;;;-1.90;99.90;;;;;;5073713;28;20058;-61
2022/12/17 18:46:38;;;;;;;64.05;28.00;;;-1.90;99.90;;;;;;5079924;28;20035;-61
2022/12/17 18:49:07;;;;;;;60.55;26.13;;;-1.90;99.90;;;;;;5075546;28;20446;-62
2022/12/17 18:51:33;;;;;;;61.83;29.17;;;-1.90;99.90;;;;;;5078924;28;20040;-62
2022/12/17 18:54:00;;;;;;;73.30;30.92;;;-1.90;99.90;;;;;;5075695;28;20066;-63
2022/12/17 18:56:27;;;;;;;75.22;32.70;;;-2.00;99.90;;;;;;5085411;28;20047;-61
2022/12/17 18:58:53;;;;;;;71.95;30.70;;;-2.00;99.90;;;;;;5093460;28;20055;-63
2022/12/17 19:01:24;;;;;;;134.60;50.92;;;-2.00;99.90;;;;;;5090565;28;20677;-61
2022/12/17 19:03:50;;;;;;;82.80;32.70;;;-2.00;99.90;;;;;;5090439;28;20040;-60
2022/12/17 19:06:17;;;;;;;67.70;31.20;;;-2.10;99.90;;;;;;5081345;28;20039;-60
2022/12/17 19:08:43;;;;;;;63.88;29.27;;;-2.10;99.90;;;;;;5083839;28;20423;-63
2022/12/17 19:11:10;;;;;;;70.55;32.85;;;-2.10;99.90;;;;;;5085146;28;20339;-63
2022/12/17 19:13:35;;;;;;;73.18;30.27;;;-2.10;99.90;;;;;;5080896;28;20383;-61
2022/12/17 19:16:33;;;;;;;67.32;29.30;;;-2.10;99.90;;;;;;5083751;28;20067;-61
2022/12/17 19:19:01;;;;;;;66.65;28.88;;;-2.10;99.90;;;;;;5031067;28;20446;-63
2022/12/17 19:21:28;;;;;;;72.20;29.67;;;-2.10;99.90;;;;;;5078240;28;20047;-63
2022/12/17 19:23:56;;;;;;;76.05;34.42;;;-2.10;99.90;;;;;;5076534;28;20074;-63
2022/12/17 19:26:23;;;;;;;61.67;27.40;;;-2.10;99.90;;;;;;5077715;28;20044;-61
2022/12/17 19:28:51;;;;;;;70.35;28.80;;;-1.50;99.90;;;;;;5078457;28;20365;-63
2022/12/17 19:31:18;;;;;;;67.13;30.65;;;-2.10;99.90;;;;;;5090082;28;20500;-61
2022/12/17 19:33:45;;;;;;;70.97;28.95;;;-2.20;99.90;;;;;;5077177;28;20044;-63
2022/12/17 19:36:16;;;;;;;64.95;28.70;;;-2.30;99.90;;;;;;5077676;28;20036;-63
2022/12/17 19:38:42;;;;;;;65.78;27.75;;;-2.20;99.90;;;;;;5076584;28;20040;-62
2022/12/17 19:41:11;;;;;;;67.65;30.45;;;-2.20;99.90;;;;;;5088100;28;20032;-61
2022/12/17 19:43:37;;;;;;;67.07;27.42;;;-2.20;99.90;;;;;;5075363;28;20028;-63
2022/12/17 19:46:08;;;;;;;70.25;29.60;;;-2.20;99.90;;;;;;5080961;28;20130;-62
2022/12/17 19:48:36;;;;;;;69.65;31.33;;;-2.30;99.90;;;;;;5086746;28;20182;-63
2022/12/17 19:51:03;;;;;;;74.60;31.20;;;-2.30;99.90;;;;;;5089024;28;20460;-62
2022/12/17 19:53:30;;;;;;;70.20;29.60;;;-2.30;99.90;;;;;;5086904;28;20451;-61
2022/12/17 19:56:06;;;;;;;66.25;27.70;;;-2.20;99.90;;;;;;5087661;28;20046;-63
2022/12/17 19:58:32;;;;;;;75.00;34.13;;;-2.20;99.90;;;;;;5085079;28;20040;-63
2022/12/17 20:01:08;;;;;;;70.47;31.17;;;-2.20;99.90;;;;;;5074993;28;20052;-61
2022/12/17 20:03:34;;;;;;;68.00;26.75;;;-2.20;99.90;;;;;;5087944;28;20473;-60
2022/12/17 20:06:00;;;;;;;76.97;32.42;;;-2.20;99.90;;;;;;5087988;28;20050;-62
2022/12/17 20:08:26;;;;;;;91.28;36.45;;;-2.20;99.90;;;;;;5092468;28;20031;-63
2022/12/17 20:10:51;;;;;;;81.97;32.13;;;-2.10;99.90;;;;;;5089923;28;20311;-61
2022/12/17 20:13:17;;;;;;;77.55;32.13;;;-2.10;99.90;;;;;;5089644;28;20044;-63
2022/12/17 20:15:42;;;;;;;71.07;31.10;;;-2.20;99.90;;;;;;5082886;28;20054;-62
2022/12/17 20:18:08;;;;;;;74.03;32.45;;;-2.10;99.90;;;;;;5081786;28;20095;-62
2022/12/17 20:20:33;;;;;;;82.97;33.75;;;-2.10;99.90;;;;;;5090258;28;20114;-62
2022/12/17 20:22:59;;;;;;;76.60;30.42;;;-2.20;99.90;;;;;;5072535;28;20040;-61
2022/12/17 20:25:24;;;;;;;76.00;32.33;;;-2.20;99.90;;;;;;5086286;28;20071;-61
2022/12/17 20:27:50;;;;;;;68.63;30.33;;;-2.20;99.90;;;;;;5087824;28;20063;-60
2022/12/17 20:30:15;;;;;;;70.50;30.23;;;-2.30;99.90;;;;;;5092077;28;20483;-61
2022/12/17 20:32:41;;;;;;;63.40;28.98;;;-2.30;99.90;;;;;;5084273;28;20044;-61
2022/12/17 20:35:07;;;;;;;67.13;27.55;;;-2.20;99.90;;;;;;5074372;28;20125;-63
2022/12/17 20:37:32;;;;;;;63.85;26.50;;;-2.20;99.90;;;;;;5081781;28;20341;-63
2022/12/17 20:39:58;;;;;;;65.18;29.17;;;-2.30;99.90;;;;;;5091886;28;20128;-63
2022/12/17 20:42:23;;;;;;;73.85;29.55;;;-2.30;99.90;;;;;;5091288;28;20114;-62
2022/12/17 20:44:49;;;;;;;67.35;29.83;;;-2.30;99.90;;;;;;5097683;28;20119;-63
2022/12/17 20:47:15;;;;;;;69.78;29.65;;;-2.10;99.90;;;;;;5088924;28;20028;-62
2022/12/17 20:49:40;;;;;;;68.15;29.65;;;-2.20;99.90;;;;;;5096555;28;20096;-61
2022/12/17 20:52:06;;;;;;;65.60;27.70;;;-2.30;99.90;;;;;;5082276;28;20540;-61
2022/12/17 20:54:31;;;;;;;60.95;27.38;;;-2.10;99.90;;;;;;5086083;28;20337;-61
2022/12/17 20:56:57;;;;;;;60.95;25.92;;;-2.30;99.90;;;;;;5078486;28;20127;-65
2022/12/17 20:59:22;;;;;;;62.42;27.17;;;-2.20;99.90;;;;;;5084468;28;20452;-62
2022/12/17 21:01:48;;;;;;;58.03;26.42;;;-2.20;99.90;;;;;;5078663;28;20353;-60
2022/12/17 21:04:15;;;;;;;77.63;33.97;;;-2.30;99.90;;;;;;5089574;28;20329;-60
2022/12/17 21:06:43;;;;;;;61.58;26.88;;;-2.30;99.90;;;;;;5083408;28;20037;-62
2022/12/17 21:09:09;;;;;;;62.35;26.90;;;-2.20;99.90;;;;;;5078854;28;20044;-63
2022/12/17 21:11:36;;;;;;;68.07;27.80;;;-2.30;99.90;;;;;;5087380;28;20044;-65
2022/12/17 21:14:08;;;;;;;59.25;26.17;;;-2.20;99.90;;;;;;5088595;28;20031;-62
2022/12/17 21:16:34;;;;;;;60.63;25.38;;;-2.20;99.90;;;;;;5078435;28;20033;-63
2022/12/17 21:19:01;;;;;;;63.95;27.10;;;-2.30;99.90;;;;;;5084571;28;20043;-62
2022/12/17 21:21:29;;;;;;;62.28;27.98;;;-2.30;99.90;;;;;;5089217;28;20456;-65
2022/12/17 21:23:55;;;;;;;72.72;29.27;;;-2.30;99.90;;;;;;5078502;28;20040;-63
2022/12/17 21:26:29;;;;;;;63.17;25.83;;;-2.30;99.90;;;;;;5079542;28;20044;-63
2022/12/17 21:28:59;;;;;;;60.40;24.43;;;-2.30;99.90;;;;;;5081617;28;20040;-62
2022/12/17 21:31:36;;;;;;;60.83;25.90;;;-2.30;99.90;;;;;;5079235;28;20036;-62
2022/12/17 21:34:04;;;;;;;68.15;26.83;;;-2.30;99.90;;;;;;5080135;28;20032;-62
2022/12/17 21:36:31;;;;;;;61.40;27.20;;;-2.30;99.90;;;;;;5081987;28;20044;-62
2022/12/17 21:38:57;;;;;;;62.53;25.95;;;-2.30;99.90;;;;;;5085944;28;20086;-62
2022/12/17 21:41:26;;;;;;;66.30;26.27;;;-2.40;99.90;;;;;;5087090;28;20449;-61
2022/12/17 21:43:57;;;;;;;70.00;26.30;;;-2.30;99.90;;;;;;5091657;28;20044;-62
2022/12/17 21:46:24;;;;;;;72.18;28.13;;;-2.30;99.90;;;;;;5089863;28;20101;-62
2022/12/17 21:48:51;;;;;;;74.38;28.55;;;-2.30;99.90;;;;;;5083855;28;20032;-59
2022/12/17 21:51:17;;;;;;;71.22;27.88;;;-2.30;99.90;;;;;;5078735;28;20044;-62
2022/12/17 21:53:42;;;;;;;70.78;27.60;;;-2.20;99.90;;;;;;5079842;28;20056;-60
2022/12/17 21:56:11;;;;;;;68.70;27.88;;;-2.30;99.90;;;;;;5076764;28;20039;-62
2022/12/17 21:58:37;;;;;;;71.00;28.70;;;-2.40;99.90;;;;;;5063821;28;20056;-63
2022/12/17 22:01:20;;;;;;;62.53;25.63;;;-2.30;99.90;;;;;;5090466;28;20035;-64
2022/12/17 22:03:47;;;;;;;75.40;27.38;;;-2.40;99.90;;;;;;5092365;28;20036;-61
2022/12/17 22:06:15;;;;;;;68.30;26.75;;;-2.30;99.90;;;;;;5072196;28;20113;-61
2022/12/17 22:08:41;;;;;;;60.22;23.35;;;-2.40;99.90;;;;;;5094163;28;20113;-64
2022/12/17 22:11:14;;;;;;;81.55;29.67;;;-2.50;99.90;;;;;;5093385;28;20467;-62
2022/12/17 22:16:25;;;;;;;;;;;-2.50;99.90;;;;;;5092591;28;20452;-61
2022/12/17 22:18:51;;;;;;;70.32;28.73;;;-2.50;99.90;;;;;;5082055;28;19921;-62
2022/12/17 22:21:17;;;;;;;74.15;26.55;;;-2.50;99.90;;;;;;5071098;28;20048;-63
2022/12/17 22:23:47;;;;;;;69.47;28.42;;;-2.50;99.90;;;;;;5074979;28;20116;-62
2022/12/17 22:26:14;;;;;;;71.97;26.77;;;-2.40;99.90;;;;;;5063233;28;20112;-63
2022/12/17 22:28:42;;;;;;;67.78;26.83;;;-2.50;99.90;;;;;;5088587;28;20384;-64
2022/12/17 22:33:54;;;;;;;72.10;27.63;;;-2.60;99.90;;;;;;5073852;28;20400;-60
2022/12/17 22:36:20;;;;;;;73.43;24.88;;;-2.60;99.90;;;;;;5084212;28;20033;-62
2022/12/17 22:38:45;;;;;;;59.90;24.20;;;-2.70;99.90;;;;;;5078537;28;20066;-62
2022/12/17 22:43:28;;;;;;;71.07;27.02;;;-2.70;99.90;;;;;;5084562;28;20033;-61
2022/12/17 22:44:03;;;;;;;58.30;24.75;;;-2.70;99.90;;;;;;5081362;28;20040;-62
2022/12/17 22:46:30;;;;;;;69.80;25.77;;;-2.70;99.90;;;;;;5066576;28;20028;-60
2022/12/17 22:48:56;;;;;;;74.72;25.33;;;-2.70;99.90;;;;;;5062576;28;20032;-59
2022/12/17 22:51:23;;;;;;;68.05;25.13;;;-2.70;99.90;;;;;;5087485;28;20043;-62
2022/12/17 22:53:49;;;;;;;74.95;28.92;;;-2.70;99.90;;;;;;5093710;28;20027;-62
2022/12/17 22:56:15;;;;;;;70.47;27.05;;;-2.60;99.90;;;;;;5079522;28;20036;-63
2022/12/17 22:58:41;;;;;;;67.28;27.25;;;-2.60;99.90;;;;;;5081430;28;20040;-60
2022/12/17 23:01:07;;;;;;;67.30;25.38;;;-2.70;99.90;;;;;;5074548;28;20050;-61
2022/12/17 23:03:33;;;;;;;73.88;27.05;;;-2.70;99.90;;;;;;5074077;28;20036;-62
2022/12/17 23:06:13;;;;;;;75.28;26.73;;;-2.60;99.90;;;;;;5075104;28;20044;-63
2022/12/17 23:08:39;;;;;;;65.47;25.55;;;-2.60;99.90;;;;;;5094090;28;20043;-62
2022/12/17 23:11:07;;;;;;;64.45;25.88;;;-2.70;99.90;;;;;;5077744;28;20040;-62
2022/12/17 23:13:33;;;;;;;68.95;25.67;;;-2.60;99.90;;;;;;5074137;28;20033;-62
2022/12/17 23:15:59;;;;;;;71.15;26.17;;;-2.80;99.90;;;;;;5086645;28;20460;-62
2022/12/17 23:18:24;;;;;;;66.43;23.02;;;-2.80;99.90;;;;;;5084366;28;20040;-62
2022/12/17 23:20:50;;;;;;;78.00;26.42;;;-2.80;99.90;;;;;;5074322;28;20051;-62
2022/12/17 23:23:15;;;;;;;72.32;25.75;;;-2.80;99.90;;;;;;5074208;28;20033;-62
2022/12/17 23:25:41;;;;;;;61.58;24.23;;;-2.80;99.90;;;;;;5074078;28;20033;-61
2022/12/17 23:28:06;;;;;;;60.53;24.35;;;-2.90;99.90;;;;;;5065082;28;20048;-62
2022/12/17 23:30:32;;;;;;;60.88;24.67;;;-2.90;99.90;;;;;;5054929;28;20067;-62
2022/12/17 23:32:58;;;;;;;59.83;23.27;;;-2.90;99.90;;;;;;5037099;28;20060;-62
2022/12/17 23:35:23;;;;;;;66.55;25.25;;;-3.00;99.90;;;;;;5055751;28;20040;-61
2022/12/17 23:37:49;;;;;;;66.93;24.25;;;-3.00;99.90;;;;;;5055140;28;20041;-61
2022/12/17 23:40:15;;;;;;;62.28;22.70;;;-3.00;99.90;;;;;;5055008;28;20398;-61
2022/12/17 23:42:40;;;;;;;62.60;23.88;;;-3.00;99.90;;;;;;5053041;28;20197;-60
2022/12/17 23:45:07;;;;;;;63.50;23.40;;;-3.00;99.90;;;;;;5054709;28;20905;-60
2022/12/17 23:47:33;;;;;;;71.70;25.02;;;-3.10;99.90;;;;;;5043945;28;20041;-62
2022/12/17 23:49:58;;;;;;;67.47;23.92;;;-3.10;99.90;;;;;;5054579;28;20482;-62
2022/12/17 23:52:24;;;;;;;62.33;23.40;;;-3.10;99.90;;;;;;5053416;28;20041;-61
2022/12/17 23:54:49;;;;;;;62.20;23.77;;;-3.00;99.90;;;;;;5053808;28;20044;-59
2022/12/17 23:57:15;;;;;;;68.28;25.38;;;-3.10;99.90;;;;;;5053099;28;20411;-59
2022/12/17 23:59:41;;;;;;;67.55;24.70;;;-3.10;99.90;;;;;;5054163;28;20440;-60
